createdAt,value
2022-11-17T00:01:22.143Z,28.46
2022-11-17T00:03:50.572Z,29.68
2022-11-17T00:06:20.431Z,28.84
2022-11-17T00:08:48.866Z,32.07
2022-11-17T00:11:15.964Z,34.56
2022-11-17T00:14:01.185Z,33.28
2022-11-17T00:16:27.955Z,28.40
2022-11-17T00:19:13.994Z,27.61
2022-11-17T00:21:40.767Z,26.54
2022-11-17T00:24:08.274Z,26.76
2022-11-17T00:26:56.563Z,26.90
2022-11-17T00:29:23.649Z,29.70
2022-11-17T00:32:09.548Z,32.69
2022-11-17T00:34:36.340Z,31.56
2022-11-17T00:37:03.596Z,28.40
2022-11-17T00:39:30.729Z,26.64
2022-11-17T00:41:57.524Z,26.39
2022-11-17T00:44:25.333Z,26.52
2022-11-17T00:46:52.341Z,26.89
2022-11-17T00:49:25.431Z,26.79
2022-11-17T00:51:56.331Z,26.17
2022-11-17T00:54:24.627Z,27.79
2022-11-17T00:56:51.384Z,28.14
2022-11-17T00:59:18.450Z,31.41
2022-11-17T01:01:45.439Z,29.43
2022-11-17T01:04:16.115Z,27.44
2022-11-17T01:06:45.738Z,26.31
2022-11-17T01:09:14.253Z,27.05
2022-11-17T01:11:42.532Z,29.05
2022-11-17T01:14:14.004Z,27.04
2022-11-17T01:16:41.589Z,26.86
2022-11-17T01:19:10.817Z,28.59
2022-11-17T01:21:37.705Z,31.26
2022-11-17T01:24:04.879Z,29.97
2022-11-17T01:26:35.070Z,27.96
2022-11-17T01:29:03.846Z,26.69
2022-11-17T01:31:33.456Z,26.73
2022-11-17T01:34:00.473Z,26.07
2022-11-17T01:36:56.633Z,28.38
2022-11-17T01:39:25.271Z,27.58
2022-11-17T01:41:53.858Z,26.10
2022-11-17T01:44:35.876Z,31.93
2022-11-17T01:47:13.402Z,28.66
2022-11-17T01:49:40.166Z,28.26
2022-11-17T01:52:09.734Z,31.33
2022-11-17T01:54:40.523Z,29.75
2022-11-17T01:57:12.391Z,28.92
2022-11-17T01:59:54.398Z,29.70
2022-11-17T02:02:21.543Z,36.55
2022-11-17T02:04:59.768Z,33.84
2022-11-17T02:07:29.971Z,33.59
2022-11-17T02:09:57.465Z,33.73
2022-11-17T02:12:26.800Z,34.20
2022-11-17T02:14:55.236Z,30.87
2022-11-17T02:17:24.328Z,29.48
2022-11-17T02:20:01.816Z,31.52
2022-11-17T02:22:53.276Z,32.43
2022-11-17T02:25:57.252Z,34.58
2022-11-17T02:28:30.599Z,29.36
2022-11-17T02:31:23.397Z,29.47
2022-11-17T02:33:56.335Z,32.71
2022-11-17T02:36:30.762Z,30.83
2022-11-17T02:39:23.346Z,33.09
2022-11-17T02:42:02.863Z,30.69
2022-11-17T02:44:37.989Z,30.22
2022-11-17T02:47:19.171Z,28.51
2022-11-17T02:50:03.599Z,31.19
2022-11-17T02:52:30.874Z,29.42
2022-11-17T02:55:01.649Z,29.97
2022-11-17T02:57:28.693Z,31.10
2022-11-17T02:59:57.061Z,28.57
2022-11-17T03:02:44.864Z,28.83
2022-11-17T03:05:30.012Z,31.99
2022-11-17T03:08:27.586Z,29.80
2022-11-17T03:11:05.386Z,30.53
2022-11-17T03:13:35.391Z,30.90
2022-11-17T03:16:39.914Z,32.51
2022-11-17T03:19:17.772Z,31.13
2022-11-17T03:22:25.807Z,30.22
2022-11-17T03:24:59.852Z,30.78
2022-11-17T03:27:31.184Z,30.09
2022-11-17T03:30:02.144Z,30.82
2022-11-17T03:32:36.339Z,29.35
2022-11-17T03:35:13.022Z,29.32
2022-11-17T03:37:46.080Z,30.56
2022-11-17T03:40:15.103Z,30.15
2022-11-17T03:42:46.340Z,30.46
2022-11-17T03:45:20.859Z,30.20
2022-11-17T03:47:51.978Z,31.61
2022-11-17T03:50:24.153Z,31.50
2022-11-17T03:52:52.189Z,29.89
2022-11-17T03:55:19.304Z,31.34
2022-11-17T03:57:57.328Z,29.00
2022-11-17T04:00:24.364Z,28.19
2022-11-17T04:02:55.934Z,29.61
2022-11-17T04:05:22.853Z,29.21
2022-11-17T04:07:49.637Z,28.96
2022-11-17T04:10:19.368Z,29.58
2022-11-17T04:13:05.377Z,29.80
2022-11-17T04:15:52.327Z,32.77
2022-11-17T04:18:23.530Z,31.59
2022-11-17T04:20:52.127Z,30.13
2022-11-17T04:23:19.344Z,31.56
2022-11-17T04:26:13.341Z,29.70
2022-11-17T04:28:43.846Z,30.10
2022-11-17T04:31:14.548Z,29.15
2022-11-17T04:33:46.476Z,27.71
2022-11-17T04:36:15.468Z,29.01
2022-11-17T04:38:54.081Z,28.76
2022-11-17T04:41:41.742Z,27.08
2022-11-17T04:44:10.673Z,28.29
2022-11-17T04:46:38.663Z,27.39
2022-11-17T04:49:06.572Z,28.00
2022-11-17T04:51:34.835Z,29.72
2022-11-17T04:54:02.988Z,28.48
2022-11-17T04:56:29.719Z,31.26
2022-11-17T04:58:56.889Z,29.07
2022-11-17T05:01:24.876Z,29.54
2022-11-17T05:03:54.157Z,30.78
2022-11-17T05:06:25.989Z,32.91
2022-11-17T05:08:56.976Z,29.19
2022-11-17T05:11:45.749Z,28.43
2022-11-17T05:14:14.334Z,30.94
2022-11-17T05:17:03.229Z,33.12
2022-11-17T05:19:36.789Z,31.82
2022-11-17T05:22:24.962Z,30.95
2022-11-17T05:24:52.695Z,30.72
2022-11-17T05:27:20.435Z,29.62
2022-11-17T05:29:47.220Z,30.03
2022-11-17T05:32:14.354Z,28.07
2022-11-17T05:34:41.438Z,28.16
2022-11-17T05:37:08.340Z,28.11
2022-11-17T05:39:35.075Z,28.73
2022-11-17T05:42:02.161Z,28.45
2022-11-17T05:44:28.834Z,30.94
2022-11-17T05:46:56.120Z,28.77
2022-11-17T05:49:22.917Z,29.31
2022-11-17T05:51:52.692Z,29.39
2022-11-17T05:54:20.345Z,28.05
2022-11-17T05:56:56.708Z,28.44
2022-11-17T05:59:40.442Z,27.11
2022-11-17T06:02:14.323Z,27.35
2022-11-17T06:04:41.709Z,26.66
2022-11-17T06:07:10.643Z,27.23
2022-11-17T06:09:40.701Z,30.02
2022-11-17T06:12:07.803Z,29.02
2022-11-17T06:14:35.554Z,32.62
2022-11-17T06:17:08.376Z,34.13
2022-11-17T06:19:40.881Z,30.73
2022-11-17T06:22:12.554Z,32.37
2022-11-17T06:24:44.248Z,32.89
2022-11-17T06:27:13.997Z,32.99
2022-11-17T06:29:44.896Z,30.62
2022-11-17T06:32:17.595Z,30.75
2022-11-17T06:34:53.626Z,31.78
2022-11-17T06:37:22.268Z,32.97
2022-11-17T06:39:48.925Z,33.19
2022-11-17T06:42:15.583Z,30.84
2022-11-17T06:44:42.819Z,31.16
2022-11-17T06:47:09.545Z,28.52
2022-11-17T06:49:36.266Z,31.46
2022-11-17T06:52:02.967Z,29.52
2022-11-17T06:54:29.924Z,28.58
2022-11-17T06:56:57.297Z,31.50
2022-11-17T06:59:24.473Z,30.69
2022-11-17T07:01:51.309Z,30.34
2022-11-17T07:04:18.023Z,31.62
2022-11-17T07:06:44.806Z,31.44
2022-11-17T07:09:12.222Z,32.09
2022-11-17T07:11:39.538Z,30.82
2022-11-17T07:14:06.434Z,32.21
2022-11-17T07:16:33.226Z,29.35
2022-11-17T07:19:03.489Z,29.60
2022-11-17T07:21:30.406Z,33.57
2022-11-17T07:23:58.155Z,31.68
2022-11-17T07:26:25.051Z,31.55
2022-11-17T07:28:51.860Z,33.09
2022-11-17T07:31:18.606Z,32.63
2022-11-17T07:33:45.350Z,30.74
2022-11-17T07:36:15.432Z,30.89
2022-11-17T07:38:43.058Z,28.40
2022-11-17T07:41:12.576Z,32.21
2022-11-17T07:43:40.413Z,31.39
2022-11-17T07:46:09.126Z,29.12
2022-11-17T07:48:36.775Z,30.35
2022-11-17T07:51:04.800Z,30.90
2022-11-17T07:53:34.652Z,32.75
2022-11-17T07:56:09.608Z,32.68
2022-11-17T07:58:38.045Z,32.22
2022-11-17T08:01:10.220Z,31.32
2022-11-17T08:03:37.326Z,32.09
2022-11-17T08:06:05.904Z,29.84
2022-11-17T08:08:34.217Z,29.88
2022-11-17T08:11:08.600Z,29.10
2022-11-17T08:13:35.870Z,30.38
2022-11-17T08:16:03.050Z,29.41
2022-11-17T08:18:30.659Z,29.90
2022-11-17T08:21:05.490Z,33.77
2022-11-17T08:23:33.092Z,34.72
2022-11-17T08:26:02.064Z,34.82
2022-11-17T08:28:29.182Z,31.94
2022-11-17T08:30:56.104Z,30.22
2022-11-17T08:33:23.501Z,29.50
2022-11-17T08:35:50.234Z,30.66
2022-11-17T08:38:17.334Z,30.30
2022-11-17T08:40:46.100Z,27.79
2022-11-17T08:43:13.323Z,28.67
2022-11-17T08:45:43.067Z,29.56
2022-11-17T08:48:09.971Z,29.00
2022-11-17T08:50:36.794Z,30.23
2022-11-17T08:53:03.794Z,28.44
2022-11-17T08:55:30.680Z,27.24
2022-11-17T08:57:57.981Z,31.14
2022-11-17T09:00:25.024Z,31.20
2022-11-17T09:02:51.897Z,30.35
2022-11-17T09:05:18.898Z,29.11
2022-11-17T09:07:45.948Z,27.71
2022-11-17T09:10:13.321Z,25.74
2022-11-17T09:12:40.207Z,18.73
2022-11-17T09:15:07.574Z,18.44
2022-11-17T09:17:34.477Z,27.36
2022-11-17T09:20:01.340Z,27.06
2022-11-17T09:22:29.018Z,22.04
2022-11-17T09:24:56.035Z,24.96
2022-11-17T09:27:22.798Z,21.43
2022-11-17T09:29:49.578Z,19.80
2022-11-17T09:32:16.963Z,26.00
2022-11-17T09:34:44.305Z,29.66
2022-11-17T09:37:11.191Z,25.83
2022-11-17T09:39:37.945Z,23.57
2022-11-17T09:42:05.427Z,18.69
2022-11-17T09:44:39.798Z,25.54
2022-11-17T09:47:10.882Z,21.57
2022-11-17T09:49:58.945Z,23.20
2022-11-17T09:52:37.863Z,19.28
2022-11-17T09:55:22.671Z,22.27
2022-11-17T09:58:00.970Z,23.76
2022-11-17T10:00:28.846Z,20.69
2022-11-17T10:02:56.042Z,20.48
2022-11-17T10:05:35.205Z,19.35
2022-11-17T10:08:16.211Z,18.73
2022-11-17T10:10:46.293Z,21.13
2022-11-17T10:13:34.032Z,24.41
2022-11-17T10:16:05.370Z,25.54
2022-11-17T10:18:38.121Z,26.09
2022-11-17T10:21:06.944Z,26.04
2022-11-17T10:23:45.792Z,29.38
2022-11-17T10:26:16.189Z,26.51
2022-11-17T10:28:44.165Z,27.05
2022-11-17T10:31:16.603Z,25.54
2022-11-17T10:33:48.040Z,22.77
2022-11-17T10:36:22.258Z,25.38
2022-11-17T10:38:52.572Z,26.54
2022-11-17T10:41:22.923Z,24.82
2022-11-17T10:44:13.156Z,25.21
2022-11-17T10:47:08.127Z,24.41
2022-11-17T10:49:36.706Z,27.37
2022-11-17T10:52:06.226Z,27.21
2022-11-17T10:54:33.388Z,26.20
2022-11-17T10:57:01.725Z,24.06
2022-11-17T10:59:32.683Z,25.53
2022-11-17T11:02:26.111Z,23.29
2022-11-17T11:05:28.842Z,26.22
2022-11-17T11:08:18.436Z,25.55
2022-11-17T11:10:50.274Z,26.34
2022-11-17T11:13:40.680Z,23.80
2022-11-17T11:16:11.428Z,25.69
2022-11-17T11:18:39.186Z,24.64
2022-11-17T11:21:18.487Z,24.67
2022-11-17T11:23:45.528Z,26.14
2022-11-17T11:26:33.970Z,26.20
2022-11-17T11:29:12.961Z,28.00
2022-11-17T11:32:11.856Z,25.94
2022-11-17T11:34:44.986Z,25.38
2022-11-17T11:37:13.886Z,25.71
2022-11-17T11:40:04.955Z,28.44
2022-11-17T11:42:43.853Z,27.54
2022-11-17T11:45:22.345Z,28.83
2022-11-17T11:48:10.902Z,27.68
2022-11-17T11:51:00.196Z,26.96
2022-11-17T11:53:42.834Z,28.56
2022-11-17T11:56:28.025Z,29.07
2022-11-17T11:59:33.858Z,27.60
2022-11-17T12:02:12.642Z,27.51
2022-11-17T12:05:05.619Z,27.07
2022-11-17T12:07:48.074Z,27.16
2022-11-17T12:10:30.097Z,26.41
2022-11-17T12:12:58.290Z,26.94
2022-11-17T12:15:26.106Z,23.87
2022-11-17T12:17:52.765Z,23.26
2022-11-17T12:20:50.422Z,25.65
2022-11-17T12:23:42.685Z,27.33
2022-11-17T12:26:21.537Z,26.82
2022-11-17T12:28:48.314Z,27.39
2022-11-17T12:31:44.287Z,27.18
2022-11-17T12:34:22.025Z,26.96
2022-11-17T12:37:07.501Z,27.23
2022-11-17T12:39:56.882Z,26.68
2022-11-17T12:42:24.487Z,28.09
2022-11-17T12:45:00.502Z,28.09
2022-11-17T12:48:04.867Z,28.44
2022-11-17T12:51:04.470Z,26.80
2022-11-17T12:53:51.371Z,27.25
2022-11-17T12:56:23.872Z,27.55
2022-11-17T12:59:17.954Z,27.06
2022-11-17T13:02:04.332Z,25.83
2022-11-17T13:04:37.253Z,26.09
2022-11-17T13:07:06.647Z,26.54
2022-11-17T13:09:35.832Z,23.79
2022-11-17T13:12:06.110Z,25.54
2022-11-17T13:14:35.588Z,24.47
2022-11-17T13:17:03.209Z,25.64
2022-11-17T13:19:30.105Z,26.94
2022-11-17T13:22:15.474Z,26.77
2022-11-17T13:24:48.002Z,25.40
2022-11-17T13:27:30.903Z,26.85
2022-11-17T13:30:22.006Z,29.01
2022-11-17T13:32:49.767Z,27.67
2022-11-17T13:35:25.355Z,24.79
2022-11-17T13:38:19.974Z,26.45
2022-11-17T13:40:52.352Z,25.17
2022-11-17T13:43:24.256Z,25.58
2022-11-17T13:45:53.344Z,25.30
2022-11-17T13:48:40.928Z,24.83
2022-11-17T13:51:39.994Z,24.96
2022-11-17T13:54:18.082Z,28.11
2022-11-17T13:56:47.609Z,25.07
2022-11-17T13:59:37.211Z,25.71
2022-11-17T14:02:16.459Z,25.82
2022-11-17T14:05:09.461Z,26.17
2022-11-17T14:07:38.453Z,25.76
2022-11-17T14:10:28.286Z,25.04
2022-11-17T14:13:01.547Z,26.94
2022-11-17T14:15:32.170Z,24.61
2022-11-17T14:18:01.664Z,24.75
2022-11-17T14:20:34.971Z,25.70
2022-11-17T14:23:10.940Z,25.40
2022-11-17T14:25:43.500Z,25.00
2022-11-17T14:28:15.303Z,24.58
2022-11-17T14:30:42.491Z,27.50
2022-11-17T14:33:13.374Z,26.17
2022-11-17T14:35:41.415Z,26.12
2022-11-17T14:38:16.132Z,25.94
2022-11-17T14:40:42.854Z,27.30
2022-11-17T14:43:09.558Z,26.42
2022-11-17T14:45:36.445Z,24.93
2022-11-17T14:48:06.069Z,26.25
2022-11-17T14:50:33.919Z,27.59
2022-11-17T14:53:00.835Z,28.75
2022-11-17T14:55:27.775Z,27.22
2022-11-17T14:57:54.668Z,26.38
2022-11-17T15:00:21.929Z,24.95
2022-11-17T15:02:49.601Z,25.62
2022-11-17T15:05:17.603Z,27.08
2022-11-17T15:07:44.518Z,25.92
2022-11-17T15:10:11.753Z,27.95
2022-11-17T15:12:38.478Z,26.73
2022-11-17T15:15:05.699Z,29.78
2022-11-17T15:17:33.251Z,31.90
2022-11-17T15:20:00.056Z,28.05
2022-11-17T15:22:27.356Z,28.03
2022-11-17T15:24:55.197Z,25.77
2022-11-17T15:27:22.135Z,25.99
2022-11-17T15:29:50.123Z,25.82
2022-11-17T15:32:17.499Z,26.73
2022-11-17T15:34:44.422Z,30.60
2022-11-17T15:37:11.249Z,29.12
2022-11-17T15:39:37.934Z,30.27
2022-11-17T15:42:04.693Z,26.81
2022-11-17T15:44:32.827Z,27.37
2022-11-17T15:46:59.767Z,29.30
2022-11-17T15:49:26.552Z,30.30
2022-11-17T15:51:53.346Z,28.96
2022-11-17T15:54:21.158Z,27.65
2022-11-17T15:56:49.235Z,26.48
2022-11-17T15:59:16.749Z,28.76
2022-11-17T16:01:44.268Z,27.41
2022-11-17T16:04:15.377Z,32.07
2022-11-17T16:06:43.689Z,31.14
2022-11-17T16:09:11.925Z,31.75
2022-11-17T16:11:39.013Z,29.63
2022-11-17T16:14:06.390Z,28.69
2022-11-17T16:16:38.865Z,26.07
2022-11-17T16:19:06.304Z,27.84
2022-11-17T16:21:33.532Z,28.61
2022-11-17T16:24:02.546Z,30.60
2022-11-17T16:26:30.248Z,26.41
2022-11-17T16:29:02.789Z,26.67
2022-11-17T16:31:32.734Z,27.44
2022-11-17T16:34:10.882Z,31.05
2022-11-17T16:36:39.215Z,29.67
2022-11-17T16:39:09.289Z,28.30
2022-11-17T16:41:38.509Z,27.94
2022-11-17T16:44:13.151Z,28.30
2022-11-17T16:46:42.827Z,29.51
2022-11-17T16:49:12.282Z,27.72
2022-11-17T16:51:39.116Z,31.13
2022-11-17T16:54:07.805Z,33.01
2022-11-17T16:56:35.081Z,31.45
2022-11-17T16:59:01.917Z,32.21
2022-11-17T17:01:31.817Z,32.30
2022-11-17T17:04:05.183Z,32.82
2022-11-17T17:06:32.696Z,30.66
2022-11-17T17:09:03.163Z,28.31
2022-11-17T17:11:32.335Z,30.17
2022-11-17T17:14:03.119Z,31.48
2022-11-17T17:16:33.214Z,30.25
2022-11-17T17:19:02.007Z,28.12
2022-11-17T17:21:29.573Z,29.45
2022-11-17T17:23:56.706Z,31.02
2022-11-17T17:26:25.336Z,31.05
2022-11-17T17:28:55.220Z,29.85
2022-11-17T17:31:23.590Z,31.29
2022-11-17T17:33:51.576Z,31.61
2022-11-17T17:36:21.416Z,33.41
2022-11-17T17:38:55.099Z,30.76
2022-11-17T17:41:24.514Z,29.60
2022-11-17T17:43:56.852Z,31.95
2022-11-17T17:46:24.293Z,32.22
2022-11-17T17:48:51.364Z,30.08
2022-11-17T17:51:20.587Z,28.50
2022-11-17T17:53:50.467Z,28.08
2022-11-17T17:56:19.785Z,29.48
2022-11-17T17:58:48.977Z,31.30
2022-11-17T18:01:17.440Z,31.16
2022-11-17T18:03:46.557Z,34.44
2022-11-17T18:06:16.381Z,31.06
2022-11-17T18:08:43.634Z,33.73
2022-11-17T18:11:12.805Z,33.56
2022-11-17T18:13:42.433Z,33.27
2022-11-17T18:16:11.551Z,30.09
2022-11-17T18:18:38.850Z,28.17
2022-11-17T18:21:08.415Z,29.77
2022-11-17T18:23:36.773Z,29.71
2022-11-17T18:26:19.757Z,29.15
2022-11-17T18:29:06.154Z,28.05
2022-11-17T18:31:35.890Z,27.74
2022-11-17T18:34:06.074Z,28.28
2022-11-17T18:36:34.777Z,27.16
2022-11-17T18:39:01.626Z,27.73
2022-11-17T18:41:30.934Z,29.55
2022-11-17T18:43:58.595Z,31.29
2022-11-17T18:46:27.421Z,32.88
2022-11-17T18:48:54.198Z,27.89
2022-11-17T18:51:23.581Z,27.68
2022-11-17T18:53:52.022Z,27.83
2022-11-17T18:56:25.386Z,28.56
2022-11-17T18:58:52.546Z,32.60
2022-11-17T19:01:21.054Z,30.00
2022-11-17T19:03:50.982Z,31.01
2022-11-17T19:06:19.371Z,29.72
2022-11-17T19:08:48.182Z,28.44
2022-11-17T19:11:16.320Z,27.69
2022-11-17T19:13:43.512Z,28.78
2022-11-17T19:16:19.210Z,28.20
2022-11-17T19:18:48.137Z,26.29
2022-11-17T19:21:21.181Z,26.98
2022-11-17T19:23:51.981Z,28.57
2022-11-17T19:26:22.513Z,28.04
2022-11-17T19:28:50.635Z,27.99
2022-11-17T19:31:19.976Z,27.73
2022-11-17T19:33:48.719Z,28.65
2022-11-17T19:36:19.647Z,31.57
2022-11-17T19:38:51.663Z,31.08
2022-11-17T19:41:21.437Z,28.42
2022-11-17T19:43:48.646Z,28.07
2022-11-17T19:46:17.046Z,28.19
2022-11-17T19:48:44.807Z,28.50
2022-11-17T19:51:21.648Z,28.22
2022-11-17T19:53:50.270Z,27.50
2022-11-17T19:56:17.720Z,28.41
2022-11-17T19:58:45.915Z,28.82
2022-11-17T20:01:22.261Z,28.72
2022-11-17T20:03:50.445Z,26.99
2022-11-17T20:06:20.028Z,27.24
2022-11-17T20:08:48.840Z,28.89
2022-11-17T20:11:26.911Z,29.53
2022-11-17T20:13:56.151Z,28.85
2022-11-17T20:16:25.215Z,28.25
2022-11-17T20:18:54.844Z,25.77
2022-11-17T20:21:22.622Z,26.07
2022-11-17T20:23:50.626Z,28.00
2022-11-17T20:26:19.259Z,27.44
2022-11-17T20:28:46.799Z,26.30
2022-11-17T20:31:24.814Z,25.48
2022-11-17T20:33:53.972Z,27.54
2022-11-17T20:36:23.916Z,29.80
2022-11-17T20:38:55.436Z,28.15
2022-11-17T20:41:23.821Z,26.98
2022-11-17T20:43:52.917Z,27.90
2022-11-17T20:46:21.154Z,27.83
2022-11-17T20:48:50.718Z,28.46
2022-11-17T20:51:23.422Z,31.59
2022-11-17T20:53:51.227Z,31.40
2022-11-17T20:56:19.467Z,29.72
2022-11-17T20:58:46.438Z,27.74
2022-11-17T21:01:17.056Z,28.01
2022-11-17T21:03:45.422Z,26.49
2022-11-17T21:06:13.169Z,27.18
2022-11-17T21:08:41.425Z,26.81
2022-11-17T21:11:10.998Z,29.51
2022-11-17T21:13:38.391Z,31.79
2022-11-17T21:16:11.914Z,32.19
2022-11-17T21:18:47.312Z,31.99
2022-11-17T21:21:14.890Z,27.39
2022-11-17T21:23:43.486Z,27.80
2022-11-17T21:26:13.513Z,28.23
2022-11-17T21:28:41.454Z,27.43
2022-11-17T21:31:24.496Z,29.34
2022-11-17T21:34:03.047Z,27.72
2022-11-17T21:36:31.542Z,28.43
2022-11-17T21:38:58.751Z,30.35
2022-11-17T21:41:30.282Z,29.97
2022-11-17T21:44:00.951Z,31.41
2022-11-17T21:46:29.993Z,29.97
2022-11-17T21:48:58.678Z,31.52
2022-11-17T21:51:28.469Z,28.06
2022-11-17T21:53:57.598Z,29.64
2022-11-17T21:56:26.939Z,29.20
2022-11-17T21:58:57.329Z,31.13
2022-11-17T22:01:24.823Z,33.00
2022-11-17T22:03:52.144Z,31.79
2022-11-17T22:06:21.893Z,31.93
2022-11-17T22:08:50.231Z,30.50
2022-11-17T22:11:35.787Z,29.14
2022-11-17T22:14:08.844Z,27.42
2022-11-17T22:16:38.209Z,30.14
2022-11-17T22:19:07.074Z,29.42
2022-11-17T22:21:36.660Z,28.84
2022-11-17T22:24:05.192Z,30.57
2022-11-17T22:26:32.385Z,28.40
2022-11-17T22:28:59.577Z,30.85
2022-11-17T22:31:26.347Z,28.68
2022-11-17T22:33:53.649Z,28.98
2022-11-17T22:36:21.298Z,29.38
2022-11-17T22:38:53.106Z,33.29
2022-11-17T22:41:22.147Z,30.57
2022-11-17T22:43:53.833Z,28.92
2022-11-17T22:46:22.238Z,30.44
2022-11-17T22:48:49.187Z,29.88
2022-11-17T22:51:38.920Z,31.50
2022-11-17T22:54:08.279Z,31.15
2022-11-17T22:56:36.358Z,29.43
2022-11-17T22:59:03.283Z,30.14
2022-11-17T23:01:30.086Z,32.86
2022-11-17T23:03:57.058Z,32.11
2022-11-17T23:06:24.303Z,28.77
2022-11-17T23:08:51.996Z,30.19
2022-11-17T23:14:09.180Z,34.76
2022-11-17T23:16:37.726Z,32.38
2022-11-17T23:19:05.680Z,34.72
2022-11-17T23:21:33.095Z,32.18
2022-11-17T23:24:00.000Z,34.16
2022-11-17T23:26:26.957Z,31.85
2022-11-17T23:28:54.266Z,33.10
2022-11-17T23:31:21.563Z,32.26
2022-11-17T23:33:49.213Z,32.86
2022-11-17T23:36:20.914Z,34.66
2022-11-17T23:38:48.738Z,30.71
2022-11-17T23:41:19.244Z,32.43
2022-11-17T23:43:46.658Z,32.57
2022-11-17T23:46:16.805Z,32.86
2022-11-17T23:48:44.519Z,33.13
2022-11-17T23:51:16.601Z,35.10
2022-11-17T23:53:43.365Z,32.77
2022-11-17T23:56:10.970Z,31.49
2022-11-17T23:58:38.205Z,30.60
